Time;durP1;ratioP1;P1;durP2;ratioP2;P2;SDS_P1;SDS_P2;PMS_P1;PMS_P2;Temp;Humidity;BMP_temperature;BMP_pressure;BME280_temperature;BME280_humidity;BME280_pressure;Samples;Min_cycle;Max_cycle;Signal;HPM_P1;HPM_P2
2020/12/21 00:00:11;;;;;;;20.95;11.45;;;;;;;0.70;90.39;100912.20;1806207;79;21193;-57
2020/12/21 00:02:48;;;;;;;17.12;10.98;;;;;;;0.71;90.30;100905.84;1805922;79;21124;-56
2020/12/21 00:05:15;;;;;;;19.15;11.18;;;;;;;0.71;90.25;100904.98;1806122;79;21389;-58
2020/12/21 00:07:44;;;;;;;13.95;10.28;;;;;;;0.71;90.41;100904.56;1806195;79;21117;-57
2020/12/21 00:10:12;;;;;;;17.62;11.10;;;;;;;0.74;90.34;100906.34;1806190;79;21093;-56
2020/12/21 00:12:39;;;;;;;15.35;11.05;;;;;;;0.74;90.33;100912.32;1806185;79;21135;-57
2020/12/21 00:15:07;;;;;;;15.23;10.15;;;;;;;0.77;90.26;100911.16;1806174;79;21062;-57
2020/12/21 00:17:35;;;;;;;18.25;11.53;;;;;;;0.80;90.08;100914.20;1806170;79;21382;-57
2020/12/21 00:20:04;;;;;;;18.55;12.23;;;;;;;0.81;90.06;100912.10;1806169;79;21125;-57
2020/12/21 00:22:31;;;;;;;17.12;10.95;;;;;;;0.83;90.07;100915.56;1806238;79;21116;-57
2020/12/21 00:24:59;;;;;;;15.95;11.43;;;;;;;0.86;89.75;100918.66;1806166;78;21367;-56
2020/12/21 00:27:27;;;;;;;19.48;11.50;;;;;;;0.85;89.68;100915.64;1805966;78;21919;-56
2020/12/21 00:29:54;;;;;;;17.52;11.05;;;;;;;0.83;89.28;100925.42;1806206;79;21097;-57
2020/12/21 00:32:22;;;;;;;16.30;11.15;;;;;;;0.79;88.99;100918.46;1806139;79;21098;-56
2020/12/21 00:34:50;;;;;;;19.10;11.03;;;;;;;0.78;89.00;100923.12;1806205;79;21145;-56
2020/12/21 00:37:17;;;;;;;17.27;11.48;;;;;;;0.77;89.23;100925.23;1806192;79;21387;-58
2020/12/21 00:39:48;;;;;;;17.15;11.55;;;;;;;0.78;89.36;100924.41;1806328;79;21511;-56
2020/12/21 00:42:15;;;;;;;16.90;10.53;;;;;;;0.80;88.98;100911.65;1806413;79;21042;-57
2020/12/21 00:44:42;;;;;;;15.10;10.20;;;;;;;0.81;88.87;100919.37;1783895;79;21132;-57
2020/12/21 00:47:10;;;;;;;14.55;10.45;;;;;;;0.81;88.94;100918.09;1806471;79;21581;-57
2020/12/21 00:49:37;;;;;;;18.20;10.82;;;;;;;0.81;88.92;100910.41;1806351;79;21195;-57
2020/12/21 00:52:05;;;;;;;16.65;11.63;;;;;;;0.81;88.66;100918.50;1806371;79;21057;-57
2020/12/21 00:54:34;;;;;;;17.75;10.63;;;;;;;0.79;88.59;100913.34;1806404;79;21561;-57
2020/12/21 00:57:02;;;;;;;18.32;11.43;;;;;;;0.76;88.57;100914.55;1806410;79;21958;-57
2020/12/21 00:59:29;;;;;;;16.15;11.05;;;;;;;0.75;88.55;100919.59;1806344;79;21140;-56
2020/12/21 01:01:57;;;;;;;15.50;10.43;;;;;;;0.72;88.47;100911.41;1806292;79;21366;-57
2020/12/21 01:04:24;;;;;;;16.52;10.80;;;;;;;0.73;88.55;100913.15;1806290;79;21613;-57
2020/12/21 01:06:54;;;;;;;16.32;10.45;;;;;;;0.75;88.42;100907.66;1806356;79;21539;-57
2020/12/21 01:09:21;;;;;;;19.35;11.25;;;;;;;0.77;88.24;100912.44;1806155;79;21120;-57
2020/12/21 01:11:54;;;;;;;19.15;12.25;;;;;;;0.76;88.12;100910.70;1806357;79;21053;-57
2020/12/21 01:14:21;;;;;;;18.35;11.85;;;;;;;0.75;88.05;100907.66;1806348;79;21357;-58
2020/12/21 01:16:49;;;;;;;16.02;10.88;;;;;;;0.74;88.18;100903.36;1806308;79;21069;-57
2020/12/21 01:19:16;;;;;;;17.50;10.80;;;;;;;0.73;88.28;100899.07;1806364;79;21030;-57
2020/12/21 01:21:45;;;;;;;15.35;10.10;;;;;;;0.74;88.34;100908.89;1806361;79;21094;-57
2020/12/21 01:24:12;;;;;;;16.07;10.53;;;;;;;0.76;88.28;100903.44;1806338;79;21180;-57
2020/12/21 01:26:40;;;;;;;18.07;11.60;;;;;;;0.75;88.09;100906.38;1807839;78;21712;-57
2020/12/21 01:29:08;;;;;;;14.13;9.40;;;;;;;0.76;88.04;100904.72;1824115;78;21048;-57
2020/12/21 01:31:35;;;;;;;16.50;10.68;;;;;;;0.78;88.00;100907.77;1824069;78;21490;-57
2020/12/21 01:34:05;;;;;;;16.82;10.43;;;;;;;0.78;87.90;100898.81;1822885;78;21049;-57
2020/12/21 01:36:33;;;;;;;14.73;10.20;;;;;;;0.76;87.54;100896.62;1823887;78;21128;-57
2020/12/21 01:39:01;;;;;;;17.77;10.93;;;;;;;0.74;87.62;100896.09;1824047;78;23597;-57
2020/12/21 01:41:28;;;;;;;15.65;10.58;;;;;;;0.69;87.98;100893.42;1824014;78;21069;-57
2020/12/21 01:43:56;;;;;;;16.12;10.32;;;;;;;0.68;88.22;100901.92;1823980;78;21509;-58
2020/12/21 01:46:24;;;;;;;14.65;9.68;;;;;;;0.68;88.46;100898.09;1823959;78;21100;-58
2020/12/21 01:48:51;;;;;;;15.68;10.85;;;;;;;0.69;88.31;100889.99;1824067;78;21108;-57
2020/12/21 01:51:28;;;;;;;18.45;11.60;;;;;;;0.70;88.33;100898.99;1824092;78;21553;-57
2020/12/21 01:53:59;;;;;;;14.55;10.98;;;;;;;0.69;88.48;100891.27;1824084;78;21045;-57
2020/12/21 01:56:27;;;;;;;17.73;11.25;;;;;;;0.69;88.68;100885.74;1824007;78;21490;-57
2020/12/21 01:58:54;;;;;;;17.03;11.27;;;;;;;0.68;88.73;100889.13;1824037;78;21057;-57
2020/12/21 02:01:22;;;;;;;16.27;10.98;;;;;;;0.70;88.79;100890.03;1824058;78;21813;-57
2020/12/21 02:03:50;;;;;;;18.42;11.18;;;;;;;0.68;88.87;100885.29;1824153;78;22054;-58
2020/12/21 02:06:18;;;;;;;19.55;11.78;;;;;;;0.65;89.07;100881.33;1824021;78;21052;-57
2020/12/21 02:08:47;;;;;;;20.30;12.20;;;;;;;0.64;89.08;100883.44;1824030;78;21521;-57
2020/12/21 02:11:15;;;;;;;20.80;13.27;;;;;;;0.62;89.23;100872.30;1824095;78;21513;-57
2020/12/21 02:13:42;;;;;;;18.42;11.60;;;;;;;0.64;89.37;100876.17;1824011;78;21554;-57
2020/12/21 02:16:15;;;;;;;16.37;11.65;;;;;;;0.65;89.34;100876.22;1824157;78;21321;-57
2020/12/21 02:18:40;;;;;;;16.20;10.98;;;;;;;0.65;89.15;100880.47;1823835;78;21628;-57
2020/12/21 02:21:08;;;;;;;14.60;10.50;;;;;;;0.67;89.20;100882.66;1824065;78;21035;-57
2020/12/21 02:23:36;;;;;;;15.58;10.70;;;;;;;0.69;88.87;100881.03;1824022;78;21053;-57
2020/12/21 02:26:05;;;;;;;17.20;10.95;;;;;;;0.67;88.61;100888.64;1823971;78;21479;-57
2020/12/21 02:28:32;;;;;;;15.75;10.75;;;;;;;0.70;88.58;100888.75;1811040;78;21453;-57
2020/12/21 02:30:59;;;;;;;14.95;10.55;;;;;;;0.70;88.42;100881.08;1806129;79;21991;-57
2020/12/21 02:33:27;;;;;;;16.62;11.33;;;;;;;0.69;88.43;100883.59;1806219;78;21455;-58
2020/12/21 02:35:55;;;;;;;13.95;9.88;;;;;;;0.68;88.58;100881.45;1806305;79;21041;-57
2020/12/21 02:38:22;;;;;;;17.50;11.63;;;;;;;0.72;88.46;100878.14;1806297;79;21112;-57
2020/12/21 02:40:50;;;;;;;16.15;10.78;;;;;;;0.74;88.27;100879.05;1806261;79;21239;-57
2020/12/21 02:43:20;;;;;;;16.65;12.03;;;;;;;0.75;87.97;100882.47;1806260;79;21069;-57
2020/12/21 02:45:48;;;;;;;15.65;10.85;;;;;;;0.75;87.99;100877.36;1806211;79;21528;-57
2020/12/21 02:48:16;;;;;;;15.08;10.63;;;;;;;0.76;87.66;100885.10;1806317;79;21486;-57
2020/12/21 02:50:45;;;;;;;17.65;11.35;;;;;;;0.75;87.75;100879.91;1806225;79;21042;-57
2020/12/21 02:53:14;;;;;;;16.75;11.45;;;;;;;0.74;87.91;100877.77;1806288;79;21397;-57
2020/12/21 02:55:43;;;;;;;17.87;11.12;;;;;;;0.75;87.85;100882.47;1806172;79;21129;-57
2020/12/21 02:58:11;;;;;;;15.10;10.82;;;;;;;0.74;88.03;100881.61;1806332;79;21574;-57
2020/12/21 03:00:39;;;;;;;17.90;10.80;;;;;;;0.76;88.03;100877.42;1806013;79;21041;-57
2020/12/21 03:03:08;;;;;;;15.95;10.60;;;;;;;0.78;88.00;100875.77;1805954;79;21061;-57
2020/12/21 03:05:35;;;;;;;15.95;10.35;;;;;;;0.79;88.04;100874.95;1806226;79;21431;-57
2020/12/21 03:08:05;;;;;;;14.73;10.05;;;;;;;0.78;87.98;100873.21;1806211;78;21121;-57
2020/12/21 03:10:32;;;;;;;17.23;11.45;;;;;;;0.78;87.97;100879.61;1806207;79;21106;-57
2020/12/21 03:13:01;;;;;;;18.00;10.98;;;;;;;0.77;88.02;100870.20;1806336;79;21179;-57
2020/12/21 03:15:30;;;;;;;17.00;11.18;;;;;;;0.78;88.07;100869.38;1806228;79;21148;-58
2020/12/21 03:17:57;;;;;;;18.32;10.78;;;;;;;0.82;88.24;100869.91;1806332;79;23505;-57
2020/12/21 03:20:25;;;;;;;15.30;10.60;;;;;;;0.81;87.99;100866.89;1806207;79;21058;-57
2020/12/21 03:22:52;;;;;;;14.47;10.53;;;;;;;0.79;88.05;100871.11;1806046;79;21089;-57
2020/12/21 03:25:20;;;;;;;18.55;11.28;;;;;;;0.79;88.12;100864.70;1806293;78;21588;-57
2020/12/21 03:27:47;;;;;;;15.78;11.15;;;;;;;0.80;88.14;100865.57;1810361;78;21065;-57
2020/12/21 03:30:15;;;;;;;15.70;10.78;;;;;;;0.78;88.15;100864.25;1821428;78;21269;-57
2020/12/21 03:32:43;;;;;;;15.40;10.90;;;;;;;0.77;88.11;100862.94;1821349;78;21140;-57
2020/12/21 03:35:12;;;;;;;15.88;11.15;;;;;;;0.75;88.25;100857.74;1816956;78;21108;-57
2020/12/21 03:37:40;;;;;;;16.15;11.00;;;;;;;0.76;88.30;100858.23;1821300;78;21140;-57
2020/12/21 03:40:08;;;;;;;16.73;10.82;;;;;;;0.77;88.31;100857.40;1821513;78;21485;-57
2020/12/21 03:42:35;;;;;;;16.62;10.75;;;;;;;0.77;88.40;100859.95;1821379;78;21402;-57
2020/12/21 03:45:03;;;;;;;14.83;9.73;;;;;;;0.78;88.41;100852.73;1821359;78;21148;-57
2020/12/21 03:47:31;;;;;;;12.50;9.43;;;;;;;0.77;88.35;100848.44;1821297;78;21093;-59
2020/12/21 03:50:00;;;;;;;15.05;10.40;;;;;;;0.77;88.42;100845.88;1821398;78;21186;-57
2020/12/21 03:52:29;;;;;;;15.78;10.10;;;;;;;0.76;88.47;100847.13;1821459;78;21160;-56
2020/12/21 03:54:57;;;;;;;13.60;9.78;;;;;;;0.74;88.51;100850.89;1821356;78;21129;-57
2020/12/21 03:57:24;;;;;;;14.83;9.70;;;;;;;0.72;88.65;100844.87;1821434;78;21585;-56
2020/12/21 03:59:51;;;;;;;13.50;9.05;;;;;;;0.72;88.70;100848.70;1821405;78;21608;-56
2020/12/21 04:02:21;;;;;;;13.10;9.10;;;;;;;0.73;88.73;100851.72;1821402;78;21041;-56
2020/12/21 04:04:49;;;;;;;13.40;9.23;;;;;;;0.74;88.66;100843.21;1821250;78;21057;-57
2020/12/21 04:07:17;;;;;;;14.80;10.82;;;;;;;0.74;88.74;100843.63;1821436;78;22095;-56
2020/12/21 04:09:44;;;;;;;15.53;10.55;;;;;;;0.74;88.83;100845.77;1821266;78;21132;-56
2020/12/21 04:12:12;;;;;;;15.20;10.20;;;;;;;0.75;88.81;100858.16;1821374;78;21081;-56
2020/12/21 04:14:40;;;;;;;14.45;9.73;;;;;;;0.75;88.89;100855.18;1821427;78;21605;-56
2020/12/21 04:17:07;;;;;;;16.10;10.30;;;;;;;0.74;88.75;100853.45;1821494;78;21561;-56
2020/12/21 04:19:34;;;;;;;14.03;9.98;;;;;;;0.73;88.83;100856.84;1821225;78;22278;-57
2020/12/21 04:22:02;;;;;;;15.43;9.73;;;;;;;0.73;88.94;100847.88;1821326;78;21143;-56
2020/12/21 04:24:30;;;;;;;13.28;9.20;;;;;;;0.72;88.99;100852.55;1821120;78;32553;-56
2020/12/21 04:26:58;;;;;;;14.98;10.55;;;;;;;0.71;89.06;100839.30;1821296;78;21606;-56
2020/12/21 04:29:26;;;;;;;17.17;10.23;;;;;;;0.71;89.14;100841.86;1808693;78;21058;-56
2020/12/21 04:31:55;;;;;;;15.60;10.25;;;;;;;0.71;89.29;100843.14;1806181;79;21161;-56
2020/12/21 04:34:26;;;;;;;16.32;10.63;;;;;;;0.70;89.45;100839.26;1805968;79;21128;-56
2020/12/21 04:36:54;;;;;;;16.48;10.00;;;;;;;0.69;89.62;100830.72;1806197;79;21152;-56
2020/12/21 04:39:21;;;;;;;14.90;10.00;;;;;;;0.70;89.65;100831.58;1806333;79;21585;-57
2020/12/21 04:41:55;;;;;;;13.55;9.25;;;;;;;0.67;89.70;100831.06;1806002;79;21041;-56
2020/12/21 04:44:23;;;;;;;13.60;10.05;;;;;;;0.66;89.87;100837.41;1806129;79;21313;-56
2020/12/21 04:46:57;;;;;;;15.78;10.30;;;;;;;0.65;89.94;100831.84;1806039;79;21105;-57
2020/12/21 04:49:25;;;;;;;15.30;9.73;;;;;;;0.64;90.05;100830.11;1806246;78;21049;-57
2020/12/21 04:51:53;;;;;;;15.05;10.25;;;;;;;0.64;90.15;100828.83;1806093;79;21105;-56
2020/12/21 04:54:21;;;;;;;15.93;11.08;;;;;;;0.65;90.25;100825.03;1806189;79;21189;-56
2020/12/21 04:56:48;;;;;;;13.90;9.80;;;;;;;0.65;90.24;100829.28;1806119;79;21321;-56
2020/12/21 04:59:16;;;;;;;14.23;9.73;;;;;;;0.65;90.34;100819.05;1806119;79;21062;-57
2020/12/21 05:01:44;;;;;;;15.98;10.40;;;;;;;0.65;90.32;100819.91;1806155;79;21089;-57
2020/12/21 05:04:14;;;;;;;14.33;9.40;;;;;;;0.67;90.38;100825.94;1806209;79;21096;-56
2020/12/21 05:06:53;;;;;;;13.58;9.95;;;;;;;0.67;90.35;100831.06;1806185;79;21137;-57
2020/12/21 05:09:22;;;;;;;15.38;10.03;;;;;;;0.67;90.32;100834.89;1806246;79;21411;-57
2020/12/21 05:12:03;;;;;;;16.55;11.22;;;;;;;0.71;90.41;100839.70;1806207;79;21164;-57
2020/12/21 05:14:35;;;;;;;13.95;10.05;;;;;;;0.73;90.41;100833.80;1806132;79;21041;-56
2020/12/21 05:17:18;;;;;;;14.23;9.68;;;;;;;0.75;90.33;100832.14;1806170;79;21097;-56
2020/12/21 05:19:46;;;;;;;14.47;10.40;;;;;;;0.75;90.34;100829.59;1806179;79;21029;-56
2020/12/21 05:22:15;;;;;;;15.43;10.53;;;;;;;0.74;90.35;100830.41;1806249;79;21418;-56
2020/12/21 05:24:43;;;;;;;15.13;10.68;;;;;;;0.74;90.29;100824.43;1806138;79;21124;-56
2020/12/21 05:27:15;;;;;;;13.90;9.50;;;;;;;0.73;90.25;100822.28;1806235;79;21129;-56
2020/12/21 05:29:55;;;;;;;17.10;9.70;;;;;;;0.74;90.30;100830.83;1806260;78;21558;-56
2020/12/21 05:32:23;;;;;;;14.93;9.83;;;;;;;0.73;90.26;100833.80;1806276;79;21152;-56
2020/12/21 05:34:50;;;;;;;12.65;9.33;;;;;;;0.73;90.31;100833.80;1806215;79;21299;-56
2020/12/21 05:37:19;;;;;;;15.78;9.60;;;;;;;0.74;90.34;100840.66;1806300;79;21061;-56
2020/12/21 05:39:51;;;;;;;14.58;10.10;;;;;;;0.74;90.36;100837.23;1806289;79;21045;-56
2020/12/21 05:42:20;;;;;;;15.80;10.58;;;;;;;0.74;90.34;100834.25;1806255;79;21486;-56
2020/12/21 05:45:02;;;;;;;14.23;9.98;;;;;;;0.74;90.25;100844.49;1806397;79;21487;-56
2020/12/21 05:47:30;;;;;;;16.42;10.32;;;;;;;0.73;90.22;100846.59;1806310;79;22217;-56
2020/12/21 05:50:05;;;;;;;15.88;10.35;;;;;;;0.72;90.33;100846.15;1806216;79;21192;-56
2020/12/21 05:52:37;;;;;;;15.43;10.65;;;;;;;0.76;90.33;100852.24;1806252;79;21085;-56
2020/12/21 05:55:12;;;;;;;16.02;11.15;;;;;;;0.77;90.28;100850.13;1805414;79;21053;-56
2020/12/21 05:57:40;;;;;;;15.55;10.78;;;;;;;0.80;90.47;100853.64;1806342;79;21276;-57
2020/12/21 06:00:14;;;;;;;19.60;11.60;;;;;;;0.87;90.31;100849.98;1806400;79;21487;-57
2020/12/21 06:02:42;;;;;;;14.75;10.43;;;;;;;0.88;90.10;100852.58;1803563;78;21136;-57
2020/12/21 06:05:16;;;;;;;15.53;10.80;;;;;;;0.86;89.88;100852.09;1788183;78;21041;-57
2020/12/21 06:07:47;;;;;;;14.13;10.23;;;;;;;0.86;89.97;100849.53;1774011;80;21113;-57
2020/12/21 06:10:15;;;;;;;17.17;10.93;;;;;;;0.85;89.93;100851.64;1774516;80;21479;-56
2020/12/21 06:12:48;;;;;;;20.45;12.40;;;;;;;0.82;89.85;100849.42;1793851;78;21204;-57
2020/12/21 06:15:24;;;;;;;20.60;11.53;;;;;;;0.80;89.99;100842.12;1790354;78;21610;-58
2020/12/21 06:17:52;;;;;;;16.57;10.05;;;;;;;0.81;90.00;100850.66;1783572;79;21574;-56
2020/12/21 06:20:24;;;;;;;16.05;10.32;;;;;;;0.82;90.06;100848.14;1785558;79;21125;-58
2020/12/21 06:22:53;;;;;;;13.90;10.43;;;;;;;0.83;89.97;100847.34;1794551;78;21164;-56
2020/12/21 06:25:23;;;;;;;16.60;10.28;;;;;;;0.86;89.92;100848.25;1786018;79;22057;-57
2020/12/21 06:27:51;;;;;;;16.77;11.30;;;;;;;0.85;89.91;100853.78;1788437;78;21184;-59
2020/12/21 06:30:29;;;;;;;15.50;11.20;;;;;;;0.86;89.87;100852.09;1741042;80;21057;-59
2020/12/21 06:33:03;;;;;;;17.20;11.85;;;;;;;0.86;89.89;100858.08;1791988;79;21164;-60
2020/12/21 06:35:43;;;;;;;19.40;10.98;;;;;;;0.88;89.83;100859.39;1787198;78;21110;-59
2020/12/21 06:38:16;;;;;;;15.60;11.50;;;;;;;0.89;89.70;100855.59;1802491;77;21341;-59
2020/12/21 06:40:47;;;;;;;22.07;12.95;;;;;;;0.90;89.57;100856.46;1803927;79;21160;-59
2020/12/21 06:43:20;;;;;;;15.25;10.72;;;;;;;0.92;89.44;100859.95;1802601;77;21137;-59
2020/12/21 06:46:14;;;;;;;14.38;10.93;;;;;;;0.90;89.26;100862.45;1788257;78;21065;-65
2020/12/21 06:48:46;;;;;;;16.50;10.85;;;;;;;0.91;89.24;100859.47;1731898;81;21177;-59
2020/12/21 06:51:15;;;;;;;15.28;11.20;;;;;;;0.94;89.11;100860.86;1673320;83;21374;-59
2020/12/21 06:54:04;;;;;;;16.55;11.22;;;;;;;0.96;89.16;100865.60;1711118;82;21634;-59
2020/12/21 06:56:32;;;;;;;14.63;10.48;;;;;;;0.99;89.22;100869.14;1769592;79;21495;-58
2020/12/21 06:59:01;;;;;;;15.70;10.30;;;;;;;1.04;89.09;100866.28;1785291;79;21184;-59
2020/12/21 07:01:30;;;;;;;16.40;10.43;;;;;;;1.07;88.65;100865.52;1771361;79;21183;-58
2020/12/21 07:03:58;;;;;;;15.88;11.18;;;;;;;1.09;88.64;100866.42;1788910;79;21179;-59
2020/12/21 07:06:27;;;;;;;16.02;11.53;;;;;;;1.12;88.56;100866.49;1782979;79;21161;-59
2020/12/21 07:08:59;;;;;;;21.02;11.68;;;;;;;1.16;88.56;100864.91;1792465;79;21185;-59
2020/12/21 07:11:28;;;;;;;14.20;10.15;;;;;;;1.20;88.31;100867.58;1793033;79;21161;-59
2020/12/21 07:13:57;;;;;;;14.25;10.68;;;;;;;1.21;87.79;100864.22;1791751;79;21630;-60
2020/12/21 07:16:26;;;;;;;17.07;10.48;;;;;;;1.21;87.70;100862.94;1786550;80;21377;-59
2020/12/21 07:18:55;;;;;;;14.35;10.32;;;;;;;1.24;87.79;100855.33;1791796;79;21193;-60
2020/12/21 07:21:23;;;;;;;16.82;10.93;;;;;;;1.23;87.41;100858.72;1792249;79;21156;-58
2020/12/21 07:23:50;;;;;;;15.35;10.10;;;;;;;1.24;87.41;100864.29;1791628;79;21192;-70
2020/12/21 07:26:18;;;;;;;17.57;12.05;;;;;;;1.25;87.48;100863.45;1792304;79;21176;-58
2020/12/21 07:28:47;;;;;;;18.15;12.30;;;;;;;1.29;87.55;100864.43;1793488;79;21808;-59
2020/12/21 07:31:17;;;;;;;19.12;12.15;;;;;;;1.32;87.44;100865.36;1796054;79;21920;-58
2020/12/21 07:33:58;;;;;;;16.60;10.65;;;;;;;1.33;87.39;100859.41;1795688;79;21105;-59
2020/12/21 07:36:38;;;;;;;15.65;11.50;;;;;;;1.33;87.00;100858.13;1805826;79;21188;-58
2020/12/21 07:39:14;;;;;;;15.88;10.60;;;;;;;1.33;86.89;100861.11;1783093;79;21275;-58
2020/12/21 07:41:47;;;;;;;17.05;11.85;;;;;;;1.33;86.70;100856.85;1761602;81;21558;-58
2020/12/21 07:44:33;;;;;;;16.02;11.22;;;;;;;1.33;86.61;100861.97;1777440;79;21678;-57
2020/12/21 07:47:08;;;;;;;17.77;12.65;;;;;;;1.33;86.75;100859.41;1802998;79;21144;-57
2020/12/21 07:49:37;;;;;;;15.55;11.12;;;;;;;1.34;86.87;100856.02;1806946;79;21159;-57
2020/12/21 07:52:07;;;;;;;17.65;10.70;;;;;;;1.39;86.32;100860.00;1807122;79;21179;-57
2020/12/21 07:54:40;;;;;;;17.48;12.03;;;;;;;1.39;86.46;100870.25;1808896;79;22164;-57
2020/12/21 07:57:09;;;;;;;18.70;12.50;;;;;;;1.42;86.50;100861.35;1807194;79;21196;-58
2020/12/21 07:59:38;;;;;;;16.57;11.60;;;;;;;1.48;86.35;100869.62;1806447;79;21616;-58
2020/12/21 08:02:07;;;;;;;16.37;12.30;;;;;;;1.50;86.15;100870.52;1806583;79;21109;-59
2020/12/21 08:04:35;;;;;;;18.12;12.30;;;;;;;1.54;86.06;100867.23;1807949;79;21117;-58
2020/12/21 08:07:10;;;;;;;17.98;11.55;;;;;;;1.59;85.90;100866.95;1808804;79;21201;-58
2020/12/21 08:09:43;;;;;;;17.42;10.88;;;;;;;1.61;85.70;100867.85;1807840;79;21179;-58
2020/12/21 08:12:15;;;;;;;17.15;10.80;;;;;;;1.63;85.39;100876.44;1767264;79;21543;-58
2020/12/21 08:15:04;;;;;;;16.93;11.73;;;;;;;1.64;85.46;100873.05;1806937;79;21149;-57
2020/12/21 08:17:33;;;;;;;17.77;11.45;;;;;;;1.69;85.18;100873.18;1793354;79;21179;-58
2020/12/21 08:20:07;;;;;;;17.30;10.88;;;;;;;1.72;85.10;100871.97;1784711;79;21430;-58
2020/12/21 08:22:37;;;;;;;17.35;9.98;;;;;;;1.75;84.78;100875.49;1804623;79;21164;-58
2020/12/21 08:25:14;;;;;;;15.03;10.48;;;;;;;1.80;84.44;100872.61;1767933;81;21167;-58
2020/12/21 08:27:51;;;;;;;16.60;11.25;;;;;;;1.81;84.05;100875.62;1769415;81;21135;-57
2020/12/21 08:30:23;;;;;;;20.68;12.28;;;;;;;1.82;84.05;100876.11;1768805;81;21163;-58
2020/12/21 08:32:52;;;;;;;17.42;11.43;;;;;;;1.83;84.14;100876.97;1769632;81;21376;-57
2020/12/21 08:35:25;;;;;;;22.25;14.00;;;;;;;1.85;83.90;100876.59;1769402;81;21138;-59
2020/12/21 08:37:53;;;;;;;14.80;10.93;;;;;;;1.85;83.79;100869.77;1769863;80;21134;-58
2020/12/21 08:40:21;;;;;;;20.45;13.03;;;;;;;1.83;83.80;100865.44;1770015;81;21120;-58
2020/12/21 08:42:48;;;;;;;21.10;13.30;;;;;;;1.82;83.88;100863.29;1769941;81;21100;-59
2020/12/21 08:45:21;;;;;;;20.50;14.35;;;;;;;1.84;83.91;100868.03;1769307;81;21367;-58
2020/12/21 08:47:53;;;;;;;24.87;14.87;;;;;;;1.85;84.04;100874.89;1765026;81;21216;-60
2020/12/21 08:50:23;;;;;;;23.60;15.30;;;;;;;1.84;84.00;100864.19;1758218;81;21183;-62
2020/12/21 08:52:51;;;;;;;26.37;15.93;;;;;;;1.83;84.08;100853.48;1759202;81;21081;-58
2020/12/21 08:55:18;;;;;;;28.32;17.07;;;;;;;1.83;83.99;100858.61;1759240;81;21148;-57
2020/12/21 08:57:46;;;;;;;23.05;15.38;;;;;;;1.85;84.23;100859.51;1759228;81;23431;-59
2020/12/21 09:00:15;;;;;;;19.23;13.03;;;;;;;1.88;84.10;100859.57;1757294;81;21144;-58
2020/12/21 09:02:43;;;;;;;19.25;13.05;;;;;;;1.91;83.51;100857.10;1758273;81;21167;-58
2020/12/21 09:05:11;;;;;;;18.10;12.90;;;;;;;1.91;83.34;100858.80;1758332;81;21179;-58
2020/12/21 09:07:40;;;;;;;19.45;13.40;;;;;;;1.89;83.36;100858.77;1756755;81;21454;-57
2020/12/21 09:10:12;;;;;;;18.75;14.05;;;;;;;1.91;83.12;100860.08;1758084;81;21164;-59
2020/12/21 09:12:46;;;;;;;18.50;13.20;;;;;;;1.90;83.14;100864.77;1758751;81;21159;-58
2020/12/21 09:15:18;;;;;;;21.17;13.72;;;;;;;1.89;83.15;100868.13;1757519;81;21079;-58
2020/12/21 09:17:48;;;;;;;20.23;14.05;;;;;;;1.86;83.14;100861.23;1757899;80;21132;-59
2020/12/21 09:20:16;;;;;;;17.65;13.50;;;;;;;1.85;82.80;100858.23;1745966;81;21164;-58
2020/12/21 09:22:43;;;;;;;17.57;12.90;;;;;;;1.81;82.98;100855.53;1757021;81;21398;-58
2020/12/21 09:25:13;;;;;;;17.02;12.60;;;;;;;1.81;83.10;100853.83;1758152;81;21609;-58
2020/12/21 09:27:41;;;;;;;16.73;12.30;;;;;;;1.82;82.93;100849.19;1757531;81;21183;-58
2020/12/21 09:30:09;;;;;;;19.55;12.65;;;;;;;1.79;82.81;100852.94;1758325;81;21191;-58
2020/12/21 09:32:36;;;;;;;20.17;13.30;;;;;;;1.79;83.05;100844.38;1758215;81;21437;-60
2020/12/21 09:35:04;;;;;;;18.40;13.45;;;;;;;1.78;83.10;100842.23;1752671;80;21533;-58
2020/12/21 09:37:33;;;;;;;20.68;13.58;;;;;;;1.78;83.13;100839.66;1745484;81;21168;-58
2020/12/21 09:40:09;;;;;;;19.42;11.80;;;;;;;1.83;83.09;100840.66;1753097;81;21180;-59
2020/12/21 09:42:49;;;;;;;20.35;12.23;;;;;;;1.87;83.05;100839.89;1757773;81;21184;-58
2020/12/21 09:45:17;;;;;;;17.27;12.20;;;;;;;1.88;82.76;100835.21;1757652;81;21215;-58
2020/12/21 09:47:45;;;;;;;17.40;12.63;;;;;;;1.86;82.90;100833.03;1760698;81;21341;-59
2020/12/21 09:50:13;;;;;;;20.23;14.00;;;;;;;1.90;83.18;100823.31;1768896;81;21201;-60
2020/12/21 09:52:42;;;;;;;18.87;13.48;;;;;;;1.94;83.28;100826.39;1769203;81;21151;-60
2020/12/21 09:55:11;;;;;;;15.48;10.85;;;;;;;2.01;83.18;100824.84;1769836;81;21119;-59
2020/12/21 09:57:40;;;;;;;19.87;12.70;;;;;;;2.05;83.01;100824.52;1769018;81;21343;-60
2020/12/21 10:00:11;;;;;;;17.20;11.97;;;;;;;2.07;82.60;100826.28;1770207;81;21350;-58
2020/12/21 10:02:43;;;;;;;16.70;12.25;;;;;;;2.09;82.55;100826.31;1770315;81;21079;-60
2020/12/21 10:05:13;;;;;;;16.55;12.28;;;;;;;2.10;82.77;100827.63;1771041;80;21492;-59
2020/12/21 10:07:44;;;;;;;16.48;12.55;;;;;;;2.12;82.56;100827.69;1773010;80;21184;-59
2020/12/21 10:10:14;;;;;;;18.27;13.08;;;;;;;2.13;82.62;100825.57;1757541;80;21253;-60
2020/12/21 10:12:44;;;;;;;18.82;13.35;;;;;;;2.12;82.32;100817.42;1762296;80;21385;-59
2020/12/21 10:15:12;;;;;;;17.65;13.38;;;;;;;2.09;82.38;100817.33;1769430;81;21171;-60
2020/12/21 10:17:45;;;;;;;18.45;13.38;;;;;;;2.04;82.38;100816.34;1769116;81;21171;-58
2020/12/21 10:20:12;;;;;;;16.97;12.70;;;;;;;2.03;82.59;100815.90;1768849;80;21171;-60
2020/12/21 10:22:41;;;;;;;16.37;12.70;;;;;;;2.05;82.82;100819.39;1769027;80;21180;-60
2020/12/21 10:25:09;;;;;;;19.17;12.07;;;;;;;2.11;82.89;100819.52;1768813;81;21502;-60
2020/12/21 10:27:46;;;;;;;20.77;14.25;;;;;;;2.17;82.74;100812.83;1741030;81;21262;-60
2020/12/21 10:30:17;;;;;;;20.68;13.65;;;;;;;2.18;82.44;100813.28;1769137;81;21172;-60
2020/12/21 10:32:46;;;;;;;23.57;14.05;;;;;;;2.17;82.55;100806.84;1770642;80;21687;-61
2020/12/21 10:35:14;;;;;;;22.85;13.60;;;;;;;2.18;82.60;100803.44;1770263;80;21108;-60
2020/12/21 10:37:46;;;;;;;21.52;14.20;;;;;;;2.21;82.72;100805.67;1770447;81;21418;-61
2020/12/21 10:40:16;;;;;;;26.93;16.62;;;;;;;2.29;83.10;100807.13;1768156;80;21659;-59
2020/12/21 10:42:44;;;;;;;21.37;15.05;;;;;;;2.35;82.92;100800.86;1770055;81;21135;-60
2020/12/21 10:45:14;;;;;;;22.85;14.05;;;;;;;2.40;82.59;100799.23;1769767;81;21448;-61
2020/12/21 10:47:47;;;;;;;17.17;13.05;;;;;;;2.40;81.95;100795.39;1766851;81;21056;-59
2020/12/21 10:50:16;;;;;;;19.62;13.00;;;;;;;2.38;81.90;100806.05;1734749;81;21369;-59
2020/12/21 10:52:48;;;;;;;18.67;14.28;;;;;;;2.34;81.76;100796.53;1740786;81;21156;-60
2020/12/21 10:55:17;;;;;;;21.68;14.35;;;;;;;2.31;81.99;100797.76;1741376;82;21176;-60
2020/12/21 10:57:46;;;;;;;18.50;13.90;;;;;;;2.31;81.89;100800.33;1739651;82;21191;-59
2020/12/21 11:00:14;;;;;;;22.13;14.73;;;;;;;2.32;81.99;100795.64;1741859;82;21196;-60
2020/12/21 11:02:42;;;;;;;18.50;13.75;;;;;;;2.34;81.93;100796.95;1740263;81;21348;-61
2020/12/21 11:05:10;;;;;;;20.82;14.30;;;;;;;2.34;81.74;100788.83;1740131;82;22002;-61
2020/12/21 11:07:39;;;;;;;22.40;14.05;;;;;;;2.35;81.74;100789.73;1748753;81;21581;-60
2020/12/21 11:10:09;;;;;;;21.02;14.73;;;;;;;2.38;82.01;100788.08;1739479;81;21120;-60
2020/12/21 11:12:38;;;;;;;19.62;14.68;;;;;;;2.40;81.75;100781.27;1741858;82;21156;-60
2020/12/21 11:15:06;;;;;;;20.25;14.18;;;;;;;2.37;81.32;100786.35;1742373;82;21413;-60
2020/12/21 11:17:33;;;;;;;17.62;13.03;;;;;;;2.34;81.35;100781.55;1742062;82;21144;-60
2020/12/21 11:20:05;;;;;;;18.35;12.82;;;;;;;2.31;81.25;100773.38;1734747;81;21184;-60
2020/12/21 11:22:35;;;;;;;21.60;13.93;;;;;;;2.29;81.23;100772.91;1741390;82;21669;-60
2020/12/21 11:25:03;;;;;;;21.02;13.70;;;;;;;2.27;81.29;100777.11;1742401;82;21120;-60
2020/12/21 11:27:30;;;;;;;22.20;15.30;;;;;;;2.29;81.28;100776.76;1738425;82;21351;-57